createdAt,value
2022-09-07T00:03:57.434Z,16.65
2022-09-07T00:08:59.030Z,16.46
2022-09-07T00:14:00.684Z,16.53
2022-09-07T00:19:03.837Z,16.69
2022-09-07T00:24:05.595Z,16.63
2022-09-07T00:29:07.997Z,16.59
2022-09-07T00:34:09.591Z,16.58
2022-09-07T00:39:11.147Z,16.51
2022-09-07T00:44:43.752Z,16.54
2022-09-07T00:49:50.485Z,16.53
2022-09-07T00:54:56.482Z,16.58
2022-09-07T00:59:59.194Z,16.63
2022-09-07T01:05:09.504Z,16.64
2022-09-07T01:10:11.593Z,16.69
2022-09-07T01:15:13.158Z,16.71
2022-09-07T01:20:55.880Z,16.75
2022-09-07T01:26:24.623Z,16.79
2022-09-07T01:31:37.076Z,16.87
2022-09-07T01:37:04.223Z,16.90
2022-09-07T01:42:10.567Z,16.92
2022-09-07T01:47:24.343Z,16.94
2022-09-07T01:52:44.335Z,16.93
2022-09-07T01:57:48.451Z,16.91
2022-09-07T02:03:14.695Z,16.96
2022-09-07T02:08:25.565Z,17.00
2022-09-07T02:13:47.795Z,17.06
2022-09-07T02:18:54.995Z,17.13
2022-09-07T02:24:06.484Z,17.19
2022-09-07T02:29:08.327Z,17.27
2022-09-07T02:34:10.361Z,17.31
2022-09-07T02:39:11.911Z,17.31
2022-09-07T02:44:20.281Z,17.24
2022-09-07T02:49:36.758Z,17.23
2022-09-07T02:55:09.473Z,17.16
2022-09-07T03:00:15.394Z,17.08
2022-09-07T03:05:24.610Z,16.98
2022-09-07T03:10:27.171Z,16.93
2022-09-07T03:15:28.972Z,16.96
2022-09-07T03:20:30.671Z,17.01
2022-09-07T03:25:32.395Z,17.08
2022-09-07T03:30:34.057Z,17.08
2022-09-07T03:35:35.622Z,16.98
2022-09-07T03:40:37.456Z,16.82
2022-09-07T03:45:39.064Z,16.66
2022-09-07T03:50:40.688Z,16.54
2022-09-07T03:55:42.266Z,16.46
2022-09-07T04:00:43.808Z,16.42
2022-09-07T04:05:45.459Z,16.33
2022-09-07T04:10:47.031Z,16.25
2022-09-07T04:15:52.128Z,16.16
2022-09-07T04:20:58.627Z,16.03
2022-09-07T04:26:00.259Z,15.92
2022-09-07T04:31:02.414Z,15.83
2022-09-07T04:36:04.851Z,15.76
2022-09-07T04:41:10.074Z,15.71
2022-09-07T04:46:26.533Z,15.64
2022-09-07T04:51:30.276Z,15.61
2022-09-07T04:56:32.338Z,15.60
2022-09-07T05:01:34.423Z,15.59
2022-09-07T05:06:36.404Z,15.59
2022-09-07T05:11:38.040Z,15.58
2022-09-07T05:16:39.651Z,15.60
2022-09-07T05:21:41.524Z,15.63
2022-09-07T05:26:43.245Z,15.74
2022-09-07T05:31:45.209Z,15.87
2022-09-07T05:36:46.743Z,16.05
2022-09-07T05:41:48.362Z,16.32
2022-09-07T05:46:51.684Z,16.59
2022-09-07T05:51:53.362Z,16.92
2022-09-07T05:56:54.975Z,17.24
2022-09-07T06:01:56.782Z,17.56
2022-09-07T06:07:20.660Z,17.92
2022-09-07T06:12:20.202Z,18.27
2022-09-07T06:17:21.933Z,18.64
2022-09-07T06:22:26.675Z,19.06
2022-09-07T06:27:30.689Z,19.42
2022-09-07T06:32:43.229Z,19.72
2022-09-07T06:37:45.255Z,19.97
2022-09-07T06:42:46.827Z,20.32
2022-09-07T06:47:53.839Z,20.68
2022-09-07T06:58:17.183Z,21.26
2022-09-07T07:03:19.481Z,21.53
2022-09-07T07:08:23.106Z,21.82
2022-09-07T07:13:24.887Z,22.19
2022-09-07T07:18:26.457Z,22.40
2022-09-07T07:23:28.082Z,22.49
2022-09-07T07:33:53.035Z,22.94
2022-09-07T07:44:00.534Z,23.30
2022-09-07T07:49:02.332Z,23.44
2022-09-07T07:54:04.001Z,23.56
2022-09-07T07:59:05.670Z,23.74
2022-09-07T08:04:07.184Z,23.94
2022-09-07T08:09:08.711Z,24.10
2022-09-07T08:14:10.406Z,24.27
2022-09-07T08:19:12.208Z,24.36
2022-09-07T08:24:13.764Z,24.43
2022-09-07T08:29:15.520Z,24.42
2022-09-07T08:34:17.236Z,24.57
2022-09-07T08:39:18.837Z,24.73
2022-09-07T08:44:39.139Z,24.83
2022-09-07T08:49:43.838Z,24.91
2022-09-07T08:54:58.298Z,24.98
2022-09-07T09:00:11.623Z,25.10
2022-09-07T09:05:35.840Z,25.22
2022-09-07T09:10:56.540Z,25.38
2022-09-07T09:16:18.257Z,25.52
2022-09-07T09:21:20.559Z,25.68
2022-09-07T09:26:27.832Z,25.83
2022-09-07T09:31:35.991Z,25.93
2022-09-07T09:36:49.755Z,26.08
2022-09-07T09:41:51.731Z,26.17
2022-09-07T09:52:44.956Z,26.04
2022-09-07T10:08:54.688Z,26.09
2022-09-07T10:13:57.898Z,26.27
2022-09-07T10:19:01.217Z,26.41
2022-09-07T10:24:06.142Z,26.54
2022-09-07T10:29:14.868Z,26.54
2022-09-07T10:34:49.036Z,26.60
2022-09-07T10:47:01.231Z,26.63
2022-09-07T10:52:08.777Z,26.60
2022-09-07T10:57:49.354Z,26.38
2022-09-07T11:03:27.355Z,26.51
2022-09-07T11:09:17.586Z,26.70
2022-09-07T11:14:22.311Z,26.91
2022-09-07T11:19:49.825Z,27.12
2022-09-07T11:30:35.844Z,27.40
2022-09-07T11:35:55.770Z,27.33
2022-09-07T11:41:06.395Z,27.45
2022-09-07T11:46:18.789Z,27.56
2022-09-07T11:52:05.081Z,27.64
2022-09-07T11:57:15.822Z,27.88
2022-09-07T12:02:57.616Z,28.21
2022-09-07T12:08:22.092Z,28.40
2022-09-07T12:13:47.992Z,28.25
2022-09-07T12:19:10.788Z,27.63
2022-09-07T12:24:34.020Z,27.40
2022-09-07T12:29:35.986Z,27.07
2022-09-07T12:34:52.437Z,27.08
2022-09-07T12:40:32.140Z,26.97
2022-09-07T12:45:33.617Z,26.88
2022-09-07T12:50:42.242Z,26.88
2022-09-07T12:56:16.723Z,26.61
2022-09-07T13:01:46.247Z,26.49
2022-09-07T13:07:17.312Z,26.60
2022-09-07T13:17:57.080Z,26.79
2022-09-07T13:23:25.454Z,27.28
2022-09-07T13:28:42.424Z,27.55
2022-09-07T13:33:50.369Z,27.46
2022-09-07T13:38:53.934Z,27.41
2022-09-07T13:44:01.186Z,27.80
2022-09-07T13:49:23.530Z,27.84
2022-09-07T13:54:44.179Z,27.67
2022-09-07T13:59:50.283Z,27.71
2022-09-07T14:04:54.901Z,27.87
2022-09-07T14:10:21.018Z,27.89
2022-09-07T14:15:25.532Z,28.13
2022-09-07T14:20:28.180Z,28.17
2022-09-07T14:25:30.120Z,28.07
2022-09-07T14:30:33.472Z,28.15
2022-09-07T14:35:38.455Z,28.07
2022-09-07T14:40:40.325Z,27.86
2022-09-07T14:45:41.947Z,28.12
2022-09-07T14:51:05.515Z,28.06
2022-09-07T14:56:10.891Z,28.08
2022-09-07T15:12:36.434Z,28.03
2022-09-07T15:17:43.638Z,27.96
2022-09-07T15:22:45.948Z,28.03
2022-09-07T15:27:47.713Z,28.02
2022-09-07T15:32:49.502Z,27.91
2022-09-07T15:38:59.555Z,27.48
2022-09-07T15:43:20.418Z,26.84
2022-09-07T15:48:27.062Z,26.43
2022-09-07T15:58:55.923Z,25.84
2022-09-07T16:03:58.761Z,25.61
2022-09-07T16:09:00.438Z,25.38
2022-09-07T16:14:03.498Z,24.90
2022-09-07T16:19:07.325Z,24.33
2022-09-07T16:24:09.208Z,24.40
2022-09-07T16:29:10.921Z,24.42
2022-09-07T16:34:14.102Z,24.30
2022-09-07T16:39:16.154Z,24.11
2022-09-07T16:44:17.857Z,23.91
2022-09-07T16:49:19.685Z,23.51
2022-09-07T16:54:21.392Z,23.12
2022-09-07T16:59:26.662Z,22.76
2022-09-07T17:04:29.077Z,22.61
2022-09-07T17:09:30.694Z,22.60
2022-09-07T17:14:32.670Z,22.66
2022-09-07T17:19:34.544Z,22.54
2022-09-07T17:24:36.189Z,22.43
2022-09-07T17:29:37.843Z,22.31
2022-09-07T17:34:39.383Z,22.10
2022-09-07T17:39:41.073Z,21.96
2022-09-07T17:44:42.708Z,21.88
2022-09-07T17:49:44.352Z,21.79
2022-09-07T17:54:45.854Z,21.59
2022-09-07T18:05:11.468Z,21.20
2022-09-07T18:10:13.107Z,20.91
2022-09-07T18:15:14.802Z,20.32
2022-09-07T18:20:16.548Z,19.92
2022-09-07T18:25:18.104Z,19.75
2022-09-07T18:30:47.475Z,19.58
2022-09-07T18:35:49.054Z,19.51
2022-09-07T18:41:00.140Z,19.42
2022-09-07T18:46:08.532Z,19.28
2022-09-07T18:51:10.783Z,19.05
2022-09-07T18:56:15.038Z,18.83
2022-09-07T19:01:18.613Z,18.73
2022-09-07T19:06:20.351Z,18.59
2022-09-07T19:11:24.743Z,18.54
2022-09-07T19:16:27.902Z,18.48
2022-09-07T19:21:33.011Z,18.46
2022-09-07T19:26:37.229Z,18.41
2022-09-07T19:31:38.760Z,18.33
2022-09-07T19:36:40.762Z,18.21
2022-09-07T19:41:45.034Z,18.06
2022-09-07T19:46:46.589Z,18.06
2022-09-07T19:51:51.822Z,18.03
2022-09-07T19:56:53.380Z,17.85
2022-09-07T20:01:55.023Z,17.81
2022-09-07T20:06:56.574Z,17.84
2022-09-07T20:11:58.261Z,17.81
2022-09-07T20:16:59.896Z,17.70
2022-09-07T20:22:01.580Z,17.68
2022-09-07T20:27:03.178Z,17.71
2022-09-07T20:32:04.778Z,17.78
2022-09-07T20:37:06.382Z,17.83
2022-09-07T20:42:07.956Z,17.78
2022-09-07T20:47:11.706Z,17.76
2022-09-07T20:52:13.212Z,17.77
2022-09-07T20:57:14.703Z,17.88
2022-09-07T21:02:16.266Z,17.98
2022-09-07T21:07:17.847Z,18.04
2022-09-07T21:12:19.590Z,18.09
2022-09-07T21:17:21.187Z,18.10
2022-09-07T21:22:22.749Z,18.19
2022-09-07T21:27:24.290Z,18.32
2022-09-07T21:32:25.860Z,18.37
2022-09-07T21:37:27.366Z,18.39
2022-09-07T21:42:29.008Z,18.44
2022-09-07T21:47:30.519Z,18.48
2022-09-07T21:52:32.034Z,18.51
2022-09-07T21:57:33.555Z,18.55
2022-09-07T22:02:35.164Z,18.58
2022-09-07T22:07:36.670Z,18.52
2022-09-07T22:12:38.209Z,18.50
2022-09-07T22:17:42.310Z,18.49
2022-09-07T22:22:47.281Z,18.50
2022-09-07T22:27:48.778Z,18.48
2022-09-07T22:32:51.605Z,18.42
2022-09-07T22:37:53.111Z,18.27
2022-09-07T22:42:54.612Z,18.04
2022-09-07T22:47:58.226Z,17.93
2022-09-07T22:52:59.748Z,17.95
2022-09-07T22:58:01.243Z,17.96
2022-09-07T23:03:03.790Z,17.92
2022-09-07T23:08:05.367Z,17.89
2022-09-07T23:13:08.931Z,17.81
2022-09-07T23:18:19.053Z,17.77
2022-09-07T23:23:20.599Z,17.72
2022-09-07T23:28:22.098Z,17.64
2022-09-07T23:33:24.194Z,17.60
2022-09-07T23:38:26.278Z,17.55
2022-09-07T23:43:30.085Z,17.45
2022-09-07T23:48:31.715Z,17.41
2022-09-07T23:53:33.352Z,17.38
2022-09-07T23:58:35.074Z,17.35
